Guanajuato, Mexico

3:53 PM CDT on May 30, 2015 (GMT -0500)
De Guanajuato International | | Change Station
CLOSE
Current Station
Airport
Location: Del Bajio,
Elevation: 5968 ft
Nearby Weather Stations

Elev 5968 ft 20.99 °N, 101.48 °W | Updated 1 hour ago

Overcast
Overcast
73 °F
Feels Like 73 °F
N
0
Wind Variable Wind from North

Today
High -- | Low -- °F
--% Chance of Precip.
Yesterday
High -- | Low -- °F
Precip. -- in
7:03 AM 8:21 PM
Waxing Gibbous, 92% visible
Pressure 30.26 in
Visibility 7.0 miles
Clouds Scattered Clouds 3000 ft
Mostly Cloudy 8000 ft
Overcast 20000 ft
Dew Point 57 °F
Humidity 57%
Rainfall 0.00 in
Snow Depth Not available.
UV 4 out of 12
Pollen Not available.
Air Quality Not available.
Flu Activity Not available.
METAR MMLO 301950Z 00000KT 7SM SCT030CB BKN080 OVC200 23/14 A3026 RMK 8/177 HZY

More Conditions Fewer Conditions

Pressure 30.26 in
Visibility 7.0 miles
Clouds Scattered Clouds 3000 ft
Mostly Cloudy 8000 ft
Overcast 20000 ft
Dew Point 57 °F
Humidity 57%
Rainfall 0.00 in
Snow Depth Not available.
UV 4 out of 12
Pollen Not available.
Air Quality Not available.
Flu Activity Not available.
METAR MMLO 301950Z 00000KT 7SM SCT030CB BKN080 OVC200 23/14 A3026 RMK 8/177 HZY

More Conditions Fewer Conditions

10-Day Weather Forecast

Almanac

Astronomy

May. 30, 2015 Rise Set
Actual Time
Civil Twilight
Nautical Twilight
Astronomical Twilight
Moon
Length of Visible Light
Length of Day
Tomorrow will be .
, % of the Moon is Illuminated

Today's Extremes

Country Highs Country Lows

Community

WunderPhotos

Upload Photos

1,825,584 photos uploaded!

WunderBlogs® & News

Nearby

Air Quality

  Air Quality AQ Index Pollutant
Not available.

Snow Depth

Station Depth Elevation

Earthquake Activity

City Distance Mag. Time & Date
Minimum magnitude displayed is 2.5.

Coastal Water Temperatures

Place Temperature

Stations

Nearby Weather Stations

Station Location Temp. Windchill Dew Point Humidity Wind Precip. Elev Updated Type